Galveston, TX

3:09 PM CDT on July 04, 2015 (GMT -0500)
Ellington | | Change Station
CLOSE
Current Station
Airport
Location: Ellington Field,
Elevation: 33 ft
Nearby Weather Stations

Elev 33 ft 29.61 °N, 95.16 °W | Updated 19 minutes ago

Partly Cloudy
Partly Cloudy
91 °F
Feels Like 102 °F
N
13
Wind Variable Wind from SSE

Today
High -- | Low -- °F
--% Chance of Precip.
Yesterday
High -- | Low -- °F
Precip. -- in
6:24 AM 8:22 PM
Waning Gibbous, 90% visible
Pressure 30.00 in
Visibility 10.0 miles
Clouds Mostly Cloudy 4000 ft
Mostly Cloudy 8000 ft
Mostly Cloudy 25000 ft
Heat Index 102 °F
Dew Point 75 °F
Humidity 59%
Rainfall 0.00 in
Snow Depth Not available.
UV 6 out of 12
Pollen 3.40 out of 12
Air Quality Not available.
Flu Activity Not available.
METAR KEFD 041950Z 16011KT 10SM BKN040CB BKN080 BKN250 33/24 A3000 RMK OCNL LTGICCG TS SW MOV NE

More Conditions Fewer Conditions

Pressure 30.00 in
Visibility 10.0 miles
Clouds Mostly Cloudy 4000 ft
Mostly Cloudy 8000 ft
Mostly Cloudy 25000 ft
Heat Index 102 °F
Dew Point 75 °F
Humidity 59%
Rainfall 0.00 in
Snow Depth Not available.
UV 6 out of 12
Pollen 3.40 out of 12
Air Quality Not available.
Flu Activity Not available.
METAR KEFD 041950Z 16011KT 10SM BKN040CB BKN080 BKN250 33/24 A3000 RMK OCNL LTGICCG TS SW MOV NE

More Conditions Fewer Conditions

10-Day Weather Forecast

×

Almanac

Astronomy

Jul. 04, 2015 Rise Set
Actual Time
Civil Twilight
Nautical Twilight
Astronomical Twilight
Moon
Length of Visible Light
Length of Day
Tomorrow will be .
, % of the Moon is Illuminated

Today's Extremes

State Highs State Lows

Community

WunderPhotos

Upload Photos

1,835,073 photos uploaded!

WunderBlogs® & News

Nearby

Air Quality

  Air Quality AQ Index Pollutant
Not available.

Snow Depth

Station Depth Elevation

Earthquake Activity

City Distance Mag. Time & Date
Minimum magnitude displayed is 2.5.

Coastal Water Temperatures

Place Temperature

Stations

Nearby Weather Stations

Station Location Temp. Windchill Dew Point Humidity Wind Precip. Elev Updated Type